sensor_id;sensor_type;location;lat;lon;timestamp;P1;durP1;ratioP1;P2;durP2;ratioP2
70450;SDS011;58869;51.982;4.450;2023-05-29T00:00:33;8.20;;;5.96;;
70450;SDS011;58869;51.982;4.450;2023-05-29T00:02:58;8.06;;;5.81;;
70450;SDS011;58869;51.982;4.450;2023-05-29T00:05:24;8.51;;;6.08;;
70450;SDS011;58869;51.982;4.450;2023-05-29T00:07:50;8.41;;;6.02;;
70450;SDS011;58869;51.982;4.450;2023-05-29T00:10:15;7.99;;;5.82;;
70450;SDS011;58869;51.982;4.450;2023-05-29T00:12:41;7.04;;;5.23;;
70450;SDS011;58869;51.982;4.450;2023-05-29T00:15:07;7.57;;;5.55;;
70450;SDS011;58869;51.982;4.450;2023-05-29T00:17:35;8.25;;;5.93;;
70450;SDS011;58869;51.982;4.450;2023-05-29T00:20:01;8.31;;;5.88;;
70450;SDS011;58869;51.982;4.450;2023-05-29T00:22:37;7.67;;;5.48;;
70450;SDS011;58869;51.982;4.450;2023-05-29T00:25:06;8.47;;;5.85;;
70450;SDS011;58869;51.982;4.450;2023-05-29T00:27:32;8.97;;;6.25;;
70450;SDS011;58869;51.982;4.450;2023-05-29T00:29:59;8.40;;;5.71;;
70450;SDS011;58869;51.982;4.450;2023-05-29T00:32:25;9.92;;;6.62;;
70450;SDS011;58869;51.982;4.450;2023-05-29T00:34:50;8.92;;;6.15;;
70450;SDS011;58869;51.982;4.450;2023-05-29T00:37:16;8.76;;;5.98;;
70450;SDS011;58869;51.982;4.450;2023-05-29T00:39:42;9.55;;;6.44;;
70450;SDS011;58869;51.982;4.450;2023-05-29T00:42:08;8.98;;;6.02;;
70450;SDS011;58869;51.982;4.450;2023-05-29T00:44:34;8.71;;;5.95;;
70450;SDS011;58869;51.982;4.450;2023-05-29T00:47:00;8.24;;;5.73;;
70450;SDS011;58869;51.982;4.450;2023-05-29T00:49:26;7.59;;;5.33;;
70450;SDS011;58869;51.982;4.450;2023-05-29T00:51:52;8.42;;;5.73;;
70450;SDS011;58869;51.982;4.450;2023-05-29T00:54:21;8.29;;;5.67;;
70450;SDS011;58869;51.982;4.450;2023-05-29T00:56:54;8.54;;;5.87;;
70450;SDS011;58869;51.982;4.450;2023-05-29T00:59:20;8.94;;;6.08;;
70450;SDS011;58869;51.982;4.450;2023-05-29T01:01:50;8.48;;;5.80;;
70450;SDS011;58869;51.982;4.450;2023-05-29T01:04:16;8.19;;;5.75;;
70450;SDS011;58869;51.982;4.450;2023-05-29T01:06:42;8.03;;;5.58;;
70450;SDS011;58869;51.982;4.450;2023-05-29T01:09:09;8.53;;;5.82;;
70450;SDS011;58869;51.982;4.450;2023-05-29T01:11:45;8.38;;;5.72;;
70450;SDS011;58869;51.982;4.450;2023-05-29T01:17:32;8.23;;;5.63;;
70450;SDS011;58869;51.982;4.450;2023-05-29T01:26:48;8.83;;;6.10;;
70450;SDS011;58869;51.982;4.450;2023-05-29T01:28:56;8.18;;;5.76;;
70450;SDS011;58869;51.982;4.450;2023-05-29T01:31:26;7.93;;;5.59;;
70450;SDS011;58869;51.982;4.450;2023-05-29T01:33:56;7.60;;;5.41;;
70450;SDS011;58869;51.982;4.450;2023-05-29T01:36:23;6.98;;;4.95;;
70450;SDS011;58869;51.982;4.450;2023-05-29T01:38:50;7.08;;;5.09;;
70450;SDS011;58869;51.982;4.450;2023-05-29T01:41:17;7.70;;;5.47;;
70450;SDS011;58869;51.982;4.450;2023-05-29T01:43:44;7.20;;;5.14;;
70450;SDS011;58869;51.982;4.450;2023-05-29T01:46:15;6.67;;;4.85;;
70450;SDS011;58869;51.982;4.450;2023-05-29T01:48:42;6.11;;;4.48;;
70450;SDS011;58869;51.982;4.450;2023-05-29T01:51:11;6.59;;;4.72;;
70450;SDS011;58869;51.982;4.450;2023-05-29T01:53:41;7.90;;;5.48;;
70450;SDS011;58869;51.982;4.450;2023-05-29T01:56:08;7.95;;;5.41;;
70450;SDS011;58869;51.982;4.450;2023-05-29T01:58:42;7.56;;;5.12;;
70450;SDS011;58869;51.982;4.450;2023-05-29T02:01:12;8.31;;;5.53;;
70450;SDS011;58869;51.982;4.450;2023-05-29T02:03:38;8.13;;;5.52;;
70450;SDS011;58869;51.982;4.450;2023-05-29T02:06:10;7.02;;;4.92;;
70450;SDS011;58869;51.982;4.450;2023-05-29T02:08:36;7.66;;;5.33;;
70450;SDS011;58869;51.982;4.450;2023-05-29T02:11:20;7.26;;;5.01;;
70450;SDS011;58869;51.982;4.450;2023-05-29T02:13:45;7.70;;;5.19;;
70450;SDS011;58869;51.982;4.450;2023-05-29T02:16:11;7.52;;;5.12;;
70450;SDS011;58869;51.982;4.450;2023-05-29T02:18:36;7.28;;;4.93;;
70450;SDS011;58869;51.982;4.450;2023-05-29T02:21:01;8.39;;;5.59;;
70450;SDS011;58869;51.982;4.450;2023-05-29T02:23:27;8.81;;;5.83;;
70450;SDS011;58869;51.982;4.450;2023-05-29T02:29:13;7.53;;;5.07;;
70450;SDS011;58869;51.982;4.450;2023-05-29T02:31:39;7.69;;;5.28;;
70450;SDS011;58869;51.982;4.450;2023-05-29T02:34:04;7.17;;;4.99;;
70450;SDS011;58869;51.982;4.450;2023-05-29T02:36:30;7.31;;;5.03;;
70450;SDS011;58869;51.982;4.450;2023-05-29T02:38:55;7.53;;;5.09;;
70450;SDS011;58869;51.982;4.450;2023-05-29T02:41:21;7.01;;;4.76;;
70450;SDS011;58869;51.982;4.450;2023-05-29T02:43:46;7.22;;;4.92;;
70450;SDS011;58869;51.982;4.450;2023-05-29T02:46:12;7.16;;;4.95;;
70450;SDS011;58869;51.982;4.450;2023-05-29T02:48:37;7.37;;;5.13;;
70450;SDS011;58869;51.982;4.450;2023-05-29T02:51:02;7.54;;;5.23;;
70450;SDS011;58869;51.982;4.450;2023-05-29T02:53:28;7.95;;;5.40;;
70450;SDS011;58869;51.982;4.450;2023-05-29T02:55:53;8.44;;;5.60;;
70450;SDS011;58869;51.982;4.450;2023-05-29T02:58:22;8.11;;;5.37;;
70450;SDS011;58869;51.982;4.450;2023-05-29T03:00:48;7.67;;;5.17;;
70450;SDS011;58869;51.982;4.450;2023-05-29T03:03:15;7.15;;;4.82;;
70450;SDS011;58869;51.982;4.450;2023-05-29T03:05:40;6.31;;;4.33;;
70450;SDS011;58869;51.982;4.450;2023-05-29T03:08:07;7.53;;;5.09;;
70450;SDS011;58869;51.982;4.450;2023-05-29T03:10:33;7.54;;;4.98;;
70450;SDS011;58869;51.982;4.450;2023-05-29T03:12:58;8.54;;;5.52;;
70450;SDS011;58869;51.982;4.450;2023-05-29T03:15:24;8.12;;;5.30;;
70450;SDS011;58869;51.982;4.450;2023-05-29T03:17:52;7.63;;;5.05;;
70450;SDS011;58869;51.982;4.450;2023-05-29T03:20:18;7.45;;;4.92;;
70450;SDS011;58869;51.982;4.450;2023-05-29T03:22:43;7.27;;;4.81;;
70450;SDS011;58869;51.982;4.450;2023-05-29T03:25:09;7.72;;;5.06;;
70450;SDS011;58869;51.982;4.450;2023-05-29T03:27:34;7.55;;;4.90;;
70450;SDS011;58869;51.982;4.450;2023-05-29T03:30:00;7.96;;;5.18;;
70450;SDS011;58869;51.982;4.450;2023-05-29T03:32:31;8.10;;;5.30;;
70450;SDS011;58869;51.982;4.450;2023-05-29T03:34:59;7.40;;;4.89;;
70450;SDS011;58869;51.982;4.450;2023-05-29T03:37:25;7.25;;;4.85;;
70450;SDS011;58869;51.982;4.450;2023-05-29T03:39:51;7.53;;;5.03;;
70450;SDS011;58869;51.982;4.450;2023-05-29T03:42:16;8.08;;;5.33;;
70450;SDS011;58869;51.982;4.450;2023-05-29T03:44:42;8.16;;;5.27;;
70450;SDS011;58869;51.982;4.450;2023-05-29T03:47:10;7.12;;;4.60;;
70450;SDS011;58869;51.982;4.450;2023-05-29T03:49:35;7.81;;;5.06;;
70450;SDS011;58869;51.982;4.450;2023-05-29T03:52:01;7.79;;;5.01;;
70450;SDS011;58869;51.982;4.450;2023-05-29T03:54:29;8.25;;;5.33;;
70450;SDS011;58869;51.982;4.450;2023-05-29T03:56:55;7.98;;;5.20;;
70450;SDS011;58869;51.982;4.450;2023-05-29T03:59:23;8.08;;;5.21;;
70450;SDS011;58869;51.982;4.450;2023-05-29T04:01:48;8.54;;;5.42;;
70450;SDS011;58869;51.982;4.450;2023-05-29T04:04:14;8.57;;;5.40;;
70450;SDS011;58869;51.982;4.450;2023-05-29T04:06:39;8.43;;;5.39;;
70450;SDS011;58869;51.982;4.450;2023-05-29T04:09:05;8.40;;;5.34;;
70450;SDS011;58869;51.982;4.450;2023-05-29T04:11:34;8.28;;;5.35;;
70450;SDS011;58869;51.982;4.450;2023-05-29T04:14:00;7.52;;;4.95;;
70450;SDS011;58869;51.982;4.450;2023-05-29T04:16:27;7.99;;;5.24;;
70450;SDS011;58869;51.982;4.450;2023-05-29T04:18:54;7.84;;;5.16;;
70450;SDS011;58869;51.982;4.450;2023-05-29T04:21:20;7.52;;;4.93;;
70450;SDS011;58869;51.982;4.450;2023-05-29T04:23:46;7.70;;;4.98;;
70450;SDS011;58869;51.982;4.450;2023-05-29T04:26:12;8.44;;;5.47;;
70450;SDS011;58869;51.982;4.450;2023-05-29T04:28:40;7.39;;;4.90;;
70450;SDS011;58869;51.982;4.450;2023-05-29T04:31:07;8.15;;;5.34;;
70450;SDS011;58869;51.982;4.450;2023-05-29T04:33:33;7.74;;;4.98;;
70450;SDS011;58869;51.982;4.450;2023-05-29T04:36:02;7.69;;;4.91;;
70450;SDS011;58869;51.982;4.450;2023-05-29T04:38:29;7.53;;;4.86;;
70450;SDS011;58869;51.982;4.450;2023-05-29T04:40:56;7.64;;;4.94;;
70450;SDS011;58869;51.982;4.450;2023-05-29T04:43:23;9.01;;;5.74;;
70450;SDS011;58869;51.982;4.450;2023-05-29T04:45:51;8.95;;;5.67;;
70450;SDS011;58869;51.982;4.450;2023-05-29T04:48:18;8.33;;;5.40;;
70450;SDS011;58869;51.982;4.450;2023-05-29T04:50:43;8.45;;;5.49;;
70450;SDS011;58869;51.982;4.450;2023-05-29T04:53:09;8.01;;;5.18;;
70450;SDS011;58869;51.982;4.450;2023-05-29T04:55:35;7.76;;;5.02;;
70450;SDS011;58869;51.982;4.450;2023-05-29T04:58:03;8.64;;;5.56;;
70450;SDS011;58869;51.982;4.450;2023-05-29T05:00:28;8.34;;;5.34;;
70450;SDS011;58869;51.982;4.450;2023-05-29T05:02:54;8.51;;;5.42;;
70450;SDS011;58869;51.982;4.450;2023-05-29T05:05:20;9.55;;;6.13;;
70450;SDS011;58869;51.982;4.450;2023-05-29T05:07:46;8.58;;;5.46;;
70450;SDS011;58869;51.982;4.450;2023-05-29T05:10:12;9.04;;;5.80;;
70450;SDS011;58869;51.982;4.450;2023-05-29T05:12:38;8.39;;;5.40;;
70450;SDS011;58869;51.982;4.450;2023-05-29T05:15:05;8.67;;;5.54;;
70450;SDS011;58869;51.982;4.450;2023-05-29T05:17:31;8.03;;;5.20;;
70450;SDS011;58869;51.982;4.450;2023-05-29T05:19:56;9.20;;;5.89;;
70450;SDS011;58869;51.982;4.450;2023-05-29T05:22:22;8.75;;;5.56;;
70450;SDS011;58869;51.982;4.450;2023-05-29T05:24:47;8.91;;;5.73;;
70450;SDS011;58869;51.982;4.450;2023-05-29T05:27:13;8.64;;;5.52;;
70450;SDS011;58869;51.982;4.450;2023-05-29T05:29:38;8.47;;;5.39;;
70450;SDS011;58869;51.982;4.450;2023-05-29T05:32:04;8.67;;;5.56;;
70450;SDS011;58869;51.982;4.450;2023-05-29T05:34:30;8.45;;;5.52;;
70450;SDS011;58869;51.982;4.450;2023-05-29T05:36:55;8.44;;;5.54;;
70450;SDS011;58869;51.982;4.450;2023-05-29T05:39:21;8.13;;;5.29;;
70450;SDS011;58869;51.982;4.450;2023-05-29T05:41:46;8.14;;;5.45;;
70450;SDS011;58869;51.982;4.450;2023-05-29T05:44:12;8.29;;;5.56;;
70450;SDS011;58869;51.982;4.450;2023-05-29T05:46:40;8.23;;;5.54;;
70450;SDS011;58869;51.982;4.450;2023-05-29T05:49:05;7.80;;;5.22;;
70450;SDS011;58869;51.982;4.450;2023-05-29T05:51:31;8.66;;;5.72;;
70450;SDS011;58869;51.982;4.450;2023-05-29T05:53:56;8.42;;;5.66;;
70450;SDS011;58869;51.982;4.450;2023-05-29T05:56:22;8.29;;;5.48;;
70450;SDS011;58869;51.982;4.450;2023-05-29T05:58:47;7.72;;;5.12;;
70450;SDS011;58869;51.982;4.450;2023-05-29T06:01:15;7.81;;;5.20;;
70450;SDS011;58869;51.982;4.450;2023-05-29T06:03:41;7.87;;;5.41;;
70450;SDS011;58869;51.982;4.450;2023-05-29T06:06:09;7.33;;;5.00;;
70450;SDS011;58869;51.982;4.450;2023-05-29T06:08:36;7.82;;;5.22;;
70450;SDS011;58869;51.982;4.450;2023-05-29T06:11:03;7.86;;;5.30;;
70450;SDS011;58869;51.982;4.450;2023-05-29T06:13:29;8.13;;;5.52;;
70450;SDS011;58869;51.982;4.450;2023-05-29T06:15:55;8.16;;;5.55;;
70450;SDS011;58869;51.982;4.450;2023-05-29T06:18:21;8.22;;;5.61;;
70450;SDS011;58869;51.982;4.450;2023-05-29T06:20:47;8.61;;;5.79;;
70450;SDS011;58869;51.982;4.450;2023-05-29T06:23:13;7.76;;;5.25;;
70450;SDS011;58869;51.982;4.450;2023-05-29T06:25:39;7.25;;;5.08;;
70450;SDS011;58869;51.982;4.450;2023-05-29T06:28:04;7.35;;;5.11;;
70450;SDS011;58869;51.982;4.450;2023-05-29T06:30:32;8.34;;;5.68;;
70450;SDS011;58869;51.982;4.450;2023-05-29T06:32:58;7.75;;;5.29;;
70450;SDS011;58869;51.982;4.450;2023-05-29T06:35:24;7.41;;;5.17;;
70450;SDS011;58869;51.982;4.450;2023-05-29T06:37:49;8.24;;;5.62;;
70450;SDS011;58869;51.982;4.450;2023-05-29T06:40:14;7.81;;;5.43;;
70450;SDS011;58869;51.982;4.450;2023-05-29T06:42:42;7.67;;;5.36;;
70450;SDS011;58869;51.982;4.450;2023-05-29T06:45:10;7.94;;;5.49;;
70450;SDS011;58869;51.982;4.450;2023-05-29T06:47:39;8.03;;;5.68;;
70450;SDS011;58869;51.982;4.450;2023-05-29T06:50:06;8.07;;;5.79;;
70450;SDS011;58869;51.982;4.450;2023-05-29T06:52:35;7.92;;;5.87;;
70450;SDS011;58869;51.982;4.450;2023-05-29T06:55:01;8.21;;;6.15;;
70450;SDS011;58869;51.982;4.450;2023-05-29T06:57:26;7.82;;;5.88;;
70450;SDS011;58869;51.982;4.450;2023-05-29T06:59:52;7.62;;;5.69;;
70450;SDS011;58869;51.982;4.450;2023-05-29T07:02:17;7.59;;;5.66;;
70450;SDS011;58869;51.982;4.450;2023-05-29T07:04:43;6.88;;;5.10;;
70450;SDS011;58869;51.982;4.450;2023-05-29T07:07:08;7.20;;;5.36;;
70450;SDS011;58869;51.982;4.450;2023-05-29T07:09:34;7.64;;;5.53;;
70450;SDS011;58869;51.982;4.450;2023-05-29T07:11:59;7.94;;;5.79;;
70450;SDS011;58869;51.982;4.450;2023-05-29T07:14:25;7.25;;;5.23;;
70450;SDS011;58869;51.982;4.450;2023-05-29T07:16:57;7.52;;;5.35;;
70450;SDS011;58869;51.982;4.450;2023-05-29T07:19:22;6.76;;;4.85;;
70450;SDS011;58869;51.982;4.450;2023-05-29T07:21:49;8.09;;;5.77;;
70450;SDS011;58869;51.982;4.450;2023-05-29T07:24:15;7.87;;;5.47;;
70450;SDS011;58869;51.982;4.450;2023-05-29T07:26:40;7.59;;;5.32;;
70450;SDS011;58869;51.982;4.450;2023-05-29T07:29:06;6.76;;;4.94;;
70450;SDS011;58869;51.982;4.450;2023-05-29T07:31:32;6.44;;;4.71;;
70450;SDS011;58869;51.982;4.450;2023-05-29T07:34:01;6.70;;;4.84;;
70450;SDS011;58869;51.982;4.450;2023-05-29T07:36:29;7.22;;;5.20;;
70450;SDS011;58869;51.982;4.450;2023-05-29T07:38:58;6.60;;;4.79;;
70450;SDS011;58869;51.982;4.450;2023-05-29T07:41:24;5.52;;;4.11;;
70450;SDS011;58869;51.982;4.450;2023-05-29T07:43:51;5.28;;;3.95;;
70450;SDS011;58869;51.982;4.450;2023-05-29T07:46:18;5.18;;;3.81;;
70450;SDS011;58869;51.982;4.450;2023-05-29T07:48:44;5.21;;;3.88;;
70450;SDS011;58869;51.982;4.450;2023-05-29T07:51:12;5.14;;;3.96;;
70450;SDS011;58869;51.982;4.450;2023-05-29T07:53:38;5.25;;;3.97;;
70450;SDS011;58869;51.982;4.450;2023-05-29T07:56:06;5.40;;;4.08;;
70450;SDS011;58869;51.982;4.450;2023-05-29T07:58:32;4.87;;;3.74;;
70450;SDS011;58869;51.982;4.450;2023-05-29T08:01:00;5.66;;;4.38;;
70450;SDS011;58869;51.982;4.450;2023-05-29T08:03:26;5.42;;;4.15;;
70450;SDS011;58869;51.982;4.450;2023-05-29T08:05:52;5.24;;;4.01;;
70450;SDS011;58869;51.982;4.450;2023-05-29T08:08:17;5.28;;;4.04;;
70450;SDS011;58869;51.982;4.450;2023-05-29T08:10:43;5.52;;;4.22;;
70450;SDS011;58869;51.982;4.450;2023-05-29T08:13:08;5.51;;;4.18;;
70450;SDS011;58869;51.982;4.450;2023-05-29T08:15:34;4.99;;;3.85;;
70450;SDS011;58869;51.982;4.450;2023-05-29T08:17:59;4.99;;;3.82;;
70450;SDS011;58869;51.982;4.450;2023-05-29T08:20:25;4.93;;;3.91;;
70450;SDS011;58869;51.982;4.450;2023-05-29T08:22:50;4.83;;;3.86;;
70450;SDS011;58869;51.982;4.450;2023-05-29T08:25:16;4.69;;;3.75;;
70450;SDS011;58869;51.982;4.450;2023-05-29T08:27:43;5.15;;;4.03;;
70450;SDS011;58869;51.982;4.450;2023-05-29T08:30:08;4.90;;;3.85;;
70450;SDS011;58869;51.982;4.450;2023-05-29T08:32:34;5.24;;;4.20;;
70450;SDS011;58869;51.982;4.450;2023-05-29T08:35:00;5.02;;;3.97;;
70450;SDS011;58869;51.982;4.450;2023-05-29T08:37:29;4.82;;;3.92;;
70450;SDS011;58869;51.982;4.450;2023-05-29T08:39:55;4.93;;;3.99;;
70450;SDS011;58869;51.982;4.450;2023-05-29T08:42:21;4.98;;;4.01;;
70450;SDS011;58869;51.982;4.450;2023-05-29T08:44:55;4.99;;;4.02;;
70450;SDS011;58869;51.982;4.450;2023-05-29T08:47:23;4.26;;;3.59;;
70450;SDS011;58869;51.982;4.450;2023-05-29T08:49:52;4.40;;;3.70;;
70450;SDS011;58869;51.982;4.450;2023-05-29T08:52:19;4.83;;;3.85;;
70450;SDS011;58869;51.982;4.450;2023-05-29T08:54:51;5.14;;;4.10;;
70450;SDS011;58869;51.982;4.450;2023-05-29T08:57:18;4.86;;;3.91;;
70450;SDS011;58869;51.982;4.450;2023-05-29T08:59:44;5.17;;;4.11;;
70450;SDS011;58869;51.982;4.450;2023-05-29T09:02:10;5.45;;;4.30;;
70450;SDS011;58869;51.982;4.450;2023-05-29T09:04:37;5.03;;;3.90;;
70450;SDS011;58869;51.982;4.450;2023-05-29T09:07:03;5.19;;;3.99;;
70450;SDS011;58869;51.982;4.450;2023-05-29T09:09:29;4.99;;;3.79;;
70450;SDS011;58869;51.982;4.450;2023-05-29T09:11:57;4.33;;;3.35;;
70450;SDS011;58869;51.982;4.450;2023-05-29T09:14:39;4.91;;;3.78;;
70450;SDS011;58869;51.982;4.450;2023-05-29T09:17:07;5.33;;;4.06;;
70450;SDS011;58869;51.982;4.450;2023-05-29T09:19:34;5.22;;;3.96;;
70450;SDS011;58869;51.982;4.450;2023-05-29T09:22:09;5.07;;;4.00;;
70450;SDS011;58869;51.982;4.450;2023-05-29T09:24:43;5.00;;;3.97;;
70450;SDS011;58869;51.982;4.450;2023-05-29T09:27:12;5.41;;;4.15;;
70450;SDS011;58869;51.982;4.450;2023-05-29T09:29:38;4.81;;;3.69;;
70450;SDS011;58869;51.982;4.450;2023-05-29T09:32:09;5.12;;;3.88;;
70450;SDS011;58869;51.982;4.450;2023-05-29T09:34:42;5.22;;;3.93;;
70450;SDS011;58869;51.982;4.450;2023-05-29T09:37:08;4.69;;;3.63;;
70450;SDS011;58869;51.982;4.450;2023-05-29T09:42:07;5.34;;;4.07;;
70450;SDS011;58869;51.982;4.450;2023-05-29T09:44:33;5.23;;;3.89;;
70450;SDS011;58869;51.982;4.450;2023-05-29T09:46:59;4.62;;;3.57;;
70450;SDS011;58869;51.982;4.450;2023-05-29T09:49:32;5.03;;;3.83;;
70450;SDS011;58869;51.982;4.450;2023-05-29T09:51:58;4.62;;;3.58;;
70450;SDS011;58869;51.982;4.450;2023-05-29T09:54:26;4.53;;;3.46;;
70450;SDS011;58869;51.982;4.450;2023-05-29T09:56:57;5.49;;;4.10;;
70450;SDS011;58869;51.982;4.450;2023-05-29T09:59:24;4.99;;;3.77;;
70450;SDS011;58869;51.982;4.450;2023-05-29T10:01:55;4.71;;;3.67;;
70450;SDS011;58869;51.982;4.450;2023-05-29T10:04:29;5.44;;;4.08;;
70450;SDS011;58869;51.982;4.450;2023-05-29T10:06:57;5.27;;;3.96;;
70450;SDS011;58869;51.982;4.450;2023-05-29T10:09:27;5.11;;;3.87;;
70450;SDS011;58869;51.982;4.450;2023-05-29T10:11:54;4.74;;;3.70;;
70450;SDS011;58869;51.982;4.450;2023-05-29T10:14:23;4.64;;;3.64;;
70450;SDS011;58869;51.982;4.450;2023-05-29T10:16:50;4.35;;;3.40;;
70450;SDS011;58869;51.982;4.450;2023-05-29T10:19:21;4.05;;;3.17;;
70450;SDS011;58869;51.982;4.450;2023-05-29T10:21:51;4.31;;;3.38;;
70450;SDS011;58869;51.982;4.450;2023-05-29T10:24:18;4.44;;;3.44;;
70450;SDS011;58869;51.982;4.450;2023-05-29T10:26:46;4.56;;;3.54;;
70450;SDS011;58869;51.982;4.450;2023-05-29T10:29:25;4.59;;;3.59;;
70450;SDS011;58869;51.982;4.450;2023-05-29T10:32:05;4.43;;;3.55;;
70450;SDS011;58869;51.982;4.450;2023-05-29T10:37:37;4.19;;;3.45;;
70450;SDS011;58869;51.982;4.450;2023-05-29T10:40:11;3.61;;;3.05;;
70450;SDS011;58869;51.982;4.450;2023-05-29T10:42:45;4.31;;;3.57;;
70450;SDS011;58869;51.982;4.450;2023-05-29T10:45:11;4.41;;;3.59;;
70450;SDS011;58869;51.982;4.450;2023-05-29T10:50:37;4.72;;;3.74;;
70450;SDS011;58869;51.982;4.450;2023-05-29T10:53:10;4.48;;;3.57;;
70450;SDS011;58869;51.982;4.450;2023-05-29T10:55:42;4.51;;;3.58;;
70450;SDS011;58869;51.982;4.450;2023-05-29T10:58:08;4.21;;;3.32;;
70450;SDS011;58869;51.982;4.450;2023-05-29T11:00:43;4.23;;;3.38;;
70450;SDS011;58869;51.982;4.450;2023-05-29T11:03:25;4.25;;;3.43;;
70450;SDS011;58869;51.982;4.450;2023-05-29T11:06:16;4.27;;;3.49;;
70450;SDS011;58869;51.982;4.450;2023-05-29T11:11:12;5.03;;;4.00;;
70450;SDS011;58869;51.982;4.450;2023-05-29T11:13:40;5.32;;;4.18;;
70450;SDS011;58869;51.982;4.450;2023-05-29T11:18:54;4.51;;;3.67;;
70450;SDS011;58869;51.982;4.450;2023-05-29T11:23:53;4.73;;;3.82;;
70450;SDS011;58869;51.982;4.450;2023-05-29T11:26:19;4.36;;;3.61;;
70450;SDS011;58869;51.982;4.450;2023-05-29T11:28:47;5.59;;;4.42;;
70450;SDS011;58869;51.982;4.450;2023-05-29T11:31:12;5.21;;;4.22;;
70450;SDS011;58869;51.982;4.450;2023-05-29T11:33:42;5.15;;;4.15;;
70450;SDS011;58869;51.982;4.450;2023-05-29T11:36:14;4.93;;;4.09;;
70450;SDS011;58869;51.982;4.450;2023-05-29T11:38:40;4.88;;;4.19;;
70450;SDS011;58869;51.982;4.450;2023-05-29T11:41:08;4.70;;;3.99;;
70450;SDS011;58869;51.982;4.450;2023-05-29T11:43:35;4.57;;;3.91;;
70450;SDS011;58869;51.982;4.450;2023-05-29T11:46:00;5.13;;;4.39;;
70450;SDS011;58869;51.982;4.450;2023-05-29T11:48:26;4.71;;;4.05;;
70450;SDS011;58869;51.982;4.450;2023-05-29T11:50:52;5.16;;;4.37;;
70450;SDS011;58869;51.982;4.450;2023-05-29T11:53:18;5.04;;;4.23;;
70450;SDS011;58869;51.982;4.450;2023-05-29T11:55:46;4.80;;;4.06;;
70450;SDS011;58869;51.982;4.450;2023-05-29T11:58:11;4.96;;;4.21;;
70450;SDS011;58869;51.982;4.450;2023-05-29T12:00:38;4.74;;;4.06;;
70450;SDS011;58869;51.982;4.450;2023-05-29T12:03:05;4.63;;;3.95;;
70450;SDS011;58869;51.982;4.450;2023-05-29T12:08:11;4.97;;;4.24;;
70450;SDS011;58869;51.982;4.450;2023-05-29T12:10:36;4.77;;;4.09;;
70450;SDS011;58869;51.982;4.450;2023-05-29T12:13:05;5.05;;;4.31;;
70450;SDS011;58869;51.982;4.450;2023-05-29T12:15:30;4.72;;;4.01;;
70450;SDS011;58869;51.982;4.450;2023-05-29T12:17:56;4.48;;;3.82;;
70450;SDS011;58869;51.982;4.450;2023-05-29T12:20:23;4.58;;;3.90;;
70450;SDS011;58869;51.982;4.450;2023-05-29T12:22:52;4.65;;;3.95;;
70450;SDS011;58869;51.982;4.450;2023-05-29T12:25:21;4.57;;;3.82;;
70450;SDS011;58869;51.982;4.450;2023-05-29T12:27:47;4.74;;;3.96;;
70450;SDS011;58869;51.982;4.450;2023-05-29T12:32:44;4.88;;;4.08;;
70450;SDS011;58869;51.982;4.450;2023-05-29T12:35:16;5.04;;;4.21;;
70450;SDS011;58869;51.982;4.450;2023-05-29T12:37:47;5.53;;;4.61;;
70450;SDS011;58869;51.982;4.450;2023-05-29T12:42:56;5.36;;;4.39;;
70450;SDS011;58869;51.982;4.450;2023-05-29T12:45:34;4.83;;;3.97;;
70450;SDS011;58869;51.982;4.450;2023-05-29T12:48:02;5.34;;;4.45;;
70450;SDS011;58869;51.982;4.450;2023-05-29T12:50:39;5.59;;;4.64;;
70450;SDS011;58869;51.982;4.450;2023-05-29T12:53:09;4.81;;;4.05;;
70450;SDS011;58869;51.982;4.450;2023-05-29T12:55:38;5.19;;;4.31;;
70450;SDS011;58869;51.982;4.450;2023-05-29T12:58:05;5.32;;;4.33;;
70450;SDS011;58869;51.982;4.450;2023-05-29T13:00:33;5.34;;;4.38;;
70450;SDS011;58869;51.982;4.450;2023-05-29T13:02:59;6.10;;;4.93;;
70450;SDS011;58869;51.982;4.450;2023-05-29T13:05:26;6.11;;;5.01;;
70450;SDS011;58869;51.982;4.450;2023-05-29T13:07:52;6.17;;;4.99;;
70450;SDS011;58869;51.982;4.450;2023-05-29T13:10:18;6.82;;;5.49;;
70450;SDS011;58869;51.982;4.450;2023-05-29T13:12:44;5.70;;;4.62;;
70450;SDS011;58869;51.982;4.450;2023-05-29T13:15:11;5.42;;;4.43;;
70450;SDS011;58869;51.982;4.450;2023-05-29T13:17:39;5.82;;;4.70;;
70450;SDS011;58869;51.982;4.450;2023-05-29T13:20:12;6.15;;;4.95;;
70450;SDS011;58869;51.982;4.450;2023-05-29T13:22:39;6.35;;;5.10;;
70450;SDS011;58869;51.982;4.450;2023-05-29T13:25:05;5.84;;;4.79;;
70450;SDS011;58869;51.982;4.450;2023-05-29T13:27:34;5.97;;;4.93;;
70450;SDS011;58869;51.982;4.450;2023-05-29T13:30:02;5.38;;;4.42;;
70450;SDS011;58869;51.982;4.450;2023-05-29T13:32:31;5.49;;;4.56;;
70450;SDS011;58869;51.982;4.450;2023-05-29T13:34:57;5.86;;;4.86;;
70450;SDS011;58869;51.982;4.450;2023-05-29T13:37:22;5.85;;;4.91;;
70450;SDS011;58869;51.982;4.450;2023-05-29T13:39:48;5.99;;;4.92;;
70450;SDS011;58869;51.982;4.450;2023-05-29T13:42:14;5.84;;;4.79;;
70450;SDS011;58869;51.982;4.450;2023-05-29T13:44:39;5.57;;;4.57;;
70450;SDS011;58869;51.982;4.450;2023-05-29T13:47:05;5.78;;;4.68;;
70450;SDS011;58869;51.982;4.450;2023-05-29T13:49:31;5.58;;;4.73;;
70450;SDS011;58869;51.982;4.450;2023-05-29T13:51:56;5.31;;;4.48;;
70450;SDS011;58869;51.982;4.450;2023-05-29T13:54:23;5.18;;;4.35;;
70450;SDS011;58869;51.982;4.450;2023-05-29T13:56:48;5.31;;;4.38;;
70450;SDS011;58869;51.982;4.450;2023-05-29T13:59:14;5.46;;;4.54;;
70450;SDS011;58869;51.982;4.450;2023-05-29T14:01:40;6.33;;;5.22;;
70450;SDS011;58869;51.982;4.450;2023-05-29T14:04:05;5.89;;;4.89;;
70450;SDS011;58869;51.982;4.450;2023-05-29T14:06:31;6.07;;;4.90;;
70450;SDS011;58869;51.982;4.450;2023-05-29T14:08:58;5.71;;;4.68;;
70450;SDS011;58869;51.982;4.450;2023-05-29T14:11:23;6.18;;;5.04;;
70450;SDS011;58869;51.982;4.450;2023-05-29T14:13:49;6.19;;;5.03;;
70450;SDS011;58869;51.982;4.450;2023-05-29T14:16:15;5.98;;;4.87;;
70450;SDS011;58869;51.982;4.450;2023-05-29T14:18:40;5.90;;;4.73;;
70450;SDS011;58869;51.982;4.450;2023-05-29T14:21:09;5.31;;;4.21;;
70450;SDS011;58869;51.982;4.450;2023-05-29T14:23:35;5.61;;;4.49;;
70450;SDS011;58869;51.982;4.450;2023-05-29T14:26:01;5.37;;;4.26;;
70450;SDS011;58869;51.982;4.450;2023-05-29T14:28:27;6.00;;;4.83;;
70450;SDS011;58869;51.982;4.450;2023-05-29T14:30:52;5.10;;;4.15;;
70450;SDS011;58869;51.982;4.450;2023-05-29T14:33:17;5.27;;;4.29;;
70450;SDS011;58869;51.982;4.450;2023-05-29T14:35:43;5.96;;;4.68;;
70450;SDS011;58869;51.982;4.450;2023-05-29T14:38:08;5.88;;;4.62;;
70450;SDS011;58869;51.982;4.450;2023-05-29T14:40:34;6.00;;;4.66;;
70450;SDS011;58869;51.982;4.450;2023-05-29T14:43:01;5.45;;;4.28;;
70450;SDS011;58869;51.982;4.450;2023-05-29T14:45:28;4.96;;;3.99;;
70450;SDS011;58869;51.982;4.450;2023-05-29T14:47:53;5.41;;;4.32;;
70450;SDS011;58869;51.982;4.450;2023-05-29T14:50:20;5.16;;;4.14;;
70450;SDS011;58869;51.982;4.450;2023-05-29T14:52:45;5.21;;;4.26;;
70450;SDS011;58869;51.982;4.450;2023-05-29T14:55:13;5.43;;;4.42;;
70450;SDS011;58869;51.982;4.450;2023-05-29T14:57:40;5.15;;;4.20;;
70450;SDS011;58869;51.982;4.450;2023-05-29T15:00:07;5.19;;;4.41;;
70450;SDS011;58869;51.982;4.450;2023-05-29T15:02:36;5.49;;;4.68;;
70450;SDS011;58869;51.982;4.450;2023-05-29T15:05:04;6.48;;;5.67;;
70450;SDS011;58869;51.982;4.450;2023-05-29T15:07:30;5.65;;;4.97;;
70450;SDS011;58869;51.982;4.450;2023-05-29T15:09:59;5.52;;;4.97;;
70450;SDS011;58869;51.982;4.450;2023-05-29T15:12:25;4.78;;;4.28;;
70450;SDS011;58869;51.982;4.450;2023-05-29T15:14:55;7.36;;;6.82;;
70450;SDS011;58869;51.982;4.450;2023-05-29T15:17:20;9.54;;;9.27;;
70450;SDS011;58869;51.982;4.450;2023-05-29T15:19:46;8.52;;;8.18;;
70450;SDS011;58869;51.982;4.450;2023-05-29T15:22:12;5.43;;;5.16;;
70450;SDS011;58869;51.982;4.450;2023-05-29T15:24:37;5.31;;;4.80;;